• vieta
  • image
  • image
  • image
mod_vvisit_countermod_vvisit_countermod_vvisit_countermod_vvisit_countermod_vvisit_countermod_vvisit_countermod_vvisit_counter
mod_vvisit_counterŠiandien32
mod_vvisit_counterVakar311
mod_vvisit_counterŠią savaitę1681
mod_vvisit_counterPraėjusią savaitę5037
mod_vvisit_counterŠį mėnesį12807
mod_vvisit_counterPraėjusį mėnesį22275
mod_vvisit_counterViso1021039

Mes turime: 10 svečius online
Jūsų IP: 54.92.211.239
 , 
Šiandien: Lap 21, 2018
Oro uostas / Naujienos / 2015 Gegužė

2015 Gegužė

Š.m. gegužės 28 d. iš Uzbekistano į tarptautinį Šiaulių oro uostą atskrido orlaivis IL-76TD. Šiuo orlaiviu iš Lietuvos į Uzbekistaną buvo išgabenta Lietuvoje pagaminta oro uosto valdymui skirta įrangą. Krovinio ekspedijavimą atliko UAB „Rikusta“.

UAB „Rikusta“ teigimu, vykdytas projektas yra tęstinis, artimiausiu metu nusimato pakartotiniai skrydžiai į Šiaulius.


IL76 01IL76 02

Šiandien

Trečiadienis, 21 Lapkritis 2018

Orų prognozė aviacijai

[source: ADDS]
METAR
EYSA 202320Z 04005KT 350V090 9999 OVC005 M03/M03 Q1030 R14L/09//95 YLO1 TEMPO OVC004 YLO2 =
TAF EYSA 202303Z 2100/2109 VRB05KT 5000 BR OVC005 TEMPO 2100/2109 3000
TAF
TAF EYSA 202303Z 2100/2109 VRB05KT 5000 BR OVC005 TEMPO 2100/2109 3000 =
SR / SS: 06:12 / 14:15 UTC (EYSA 2018-11-21)

Paieška

Lankytojai

Mes turime 10 svečius online

tic logo lt